createdAt,value
2022-11-05T00:01:03.520Z,56.82
2022-11-05T00:03:23.690Z,57.05
2022-11-05T00:05:43.961Z,57.15
2022-11-05T00:08:08.321Z,56.85
2022-11-05T00:10:22.220Z,56.82
2022-11-05T00:12:42.115Z,56.73
2022-11-05T00:15:02.274Z,56.94
2022-11-05T00:17:03.837Z,57.34
2022-11-05T00:19:08.891Z,56.95
2022-11-05T00:21:30.703Z,56.94
2022-11-05T00:23:50.838Z,57.00
2022-11-05T00:26:03.957Z,56.86
2022-11-05T00:28:05.518Z,56.98
2022-11-05T00:30:07.902Z,57.04
2022-11-05T00:32:11.217Z,57.61
2022-11-05T00:34:12.723Z,56.89
2022-11-05T00:36:14.248Z,56.89
2022-11-05T00:38:15.838Z,57.02
2022-11-05T00:40:17.511Z,57.02
2022-11-05T00:42:37.699Z,56.79
2022-11-05T00:45:02.530Z,57.00
2022-11-05T00:47:22.691Z,56.94
2022-11-05T00:49:30.083Z,57.02
2022-11-05T00:51:31.747Z,57.05
2022-11-05T00:53:33.279Z,57.05
2022-11-05T00:55:42.454Z,57.05
2022-11-05T00:57:43.994Z,57.07
2022-11-05T00:59:45.469Z,57.10
2022-11-05T01:01:47.257Z,56.93
2022-11-05T01:03:51.655Z,57.13
2022-11-05T01:05:56.782Z,57.13
2022-11-05T01:07:58.899Z,57.17
2022-11-05T01:10:00.316Z,57.26
2022-11-05T01:12:01.858Z,57.09
2022-11-05T01:14:09.736Z,57.31
2022-11-05T01:16:11.281Z,57.28
2022-11-05T01:18:13.073Z,57.39
2022-11-05T01:20:14.793Z,57.32
2022-11-05T01:22:16.353Z,57.40
2022-11-05T01:24:17.803Z,57.34
2022-11-05T01:26:19.436Z,57.49
2022-11-05T01:28:21.087Z,57.52
2022-11-05T01:30:23.562Z,57.49
2022-11-05T01:32:25.035Z,57.38
2022-11-05T01:34:26.625Z,57.53
2022-11-05T01:36:28.055Z,57.58
2022-11-05T01:38:29.606Z,57.54
2022-11-05T01:40:31.127Z,57.42
2022-11-05T01:42:33.415Z,57.52
2022-11-05T01:44:53.824Z,57.64
2022-11-05T01:46:55.401Z,57.84
2022-11-05T01:49:05.421Z,57.40
2022-11-05T01:51:09.941Z,57.46
2022-11-05T01:53:18.644Z,57.49
2022-11-05T01:55:26.287Z,57.58
2022-11-05T01:57:29.095Z,57.30
2022-11-05T01:59:37.819Z,57.43
2022-11-05T02:01:39.600Z,57.44
2022-11-05T02:03:42.874Z,57.53
2022-11-05T02:05:46.394Z,57.42
2022-11-05T02:07:48.962Z,57.66
2022-11-05T02:10:02.669Z,57.60
2022-11-05T02:12:04.473Z,57.62
2022-11-05T02:14:06.224Z,57.57
2022-11-05T02:16:19.555Z,57.66
2022-11-05T02:18:32.860Z,57.58
2022-11-05T02:20:45.700Z,57.66
2022-11-05T02:23:09.952Z,57.69
2022-11-05T02:25:48.896Z,57.84
2022-11-05T02:28:08.836Z,57.65
2022-11-05T02:30:26.276Z,57.82
2022-11-05T02:32:46.362Z,57.99
2022-11-05T02:35:11.900Z,57.78
2022-11-05T02:37:25.228Z,57.74
2022-11-05T02:39:59.438Z,57.74
2022-11-05T02:42:29.150Z,57.77
2022-11-05T02:44:55.894Z,58.01
2022-11-05T02:47:18.270Z,57.79
2022-11-05T02:49:22.778Z,57.78
2022-11-05T02:51:33.526Z,57.83
2022-11-05T02:53:58.327Z,58.04
2022-11-05T02:56:21.370Z,58.07
2022-11-05T02:58:22.938Z,58.08
2022-11-05T03:00:39.782Z,58.04
2022-11-05T03:02:41.546Z,58.06
2022-11-05T03:04:43.271Z,57.97
2022-11-05T03:06:56.127Z,57.94
2022-11-05T03:09:21.578Z,58.06
2022-11-05T03:11:26.718Z,58.00
2022-11-05T03:13:41.984Z,57.86
2022-11-05T03:16:02.558Z,57.90
2022-11-05T03:18:14.807Z,57.99
2022-11-05T03:20:21.632Z,57.87
2022-11-05T03:22:30.676Z,57.84
2022-11-05T03:24:35.623Z,57.88
2022-11-05T03:26:55.446Z,57.99
2022-11-05T03:29:02.480Z,57.90
2022-11-05T03:31:06.834Z,57.81
2022-11-05T03:33:31.421Z,57.97
2022-11-05T03:35:38.314Z,57.99
2022-11-05T03:37:43.074Z,57.99
2022-11-05T03:39:50.843Z,58.02
2022-11-05T03:41:54.042Z,57.95
2022-11-05T03:43:59.367Z,58.16
2022-11-05T03:46:16.025Z,58.17
2022-11-05T03:48:20.543Z,58.11
2022-11-05T03:50:40.922Z,58.05
2022-11-05T03:52:52.467Z,58.12
2022-11-05T03:54:54.121Z,58.05
2022-11-05T03:56:58.372Z,58.00
2022-11-05T03:59:01.919Z,57.97
2022-11-05T04:01:04.116Z,58.09
2022-11-05T04:03:05.738Z,58.09
2022-11-05T04:05:07.445Z,57.98
2022-11-05T04:07:28.526Z,58.02
2022-11-05T04:09:48.911Z,57.93
2022-11-05T04:12:09.181Z,57.92
2022-11-05T04:14:10.727Z,58.16
2022-11-05T04:16:30.697Z,58.02
2022-11-05T04:18:32.161Z,58.23
2022-11-05T04:20:52.410Z,58.11
2022-11-05T04:23:20.660Z,58.16
2022-11-05T04:25:22.687Z,58.25
2022-11-05T04:27:24.419Z,58.19
2022-11-05T04:29:52.069Z,58.18
2022-11-05T04:31:54.051Z,58.27
2022-11-05T04:33:55.651Z,58.24
2022-11-05T04:35:57.183Z,58.26
2022-11-05T04:37:58.693Z,58.05
2022-11-05T04:40:00.295Z,58.15
2022-11-05T04:42:01.719Z,58.41
2022-11-05T04:44:03.367Z,58.26
2022-11-05T04:46:05.027Z,58.27
2022-11-05T04:48:06.690Z,58.21
2022-11-05T04:50:10.553Z,58.22
2022-11-05T04:52:12.049Z,58.36
2022-11-05T04:54:13.585Z,58.19
2022-11-05T04:56:19.176Z,58.30
2022-11-05T04:58:21.373Z,58.36
2022-11-05T05:00:23.962Z,58.24
2022-11-05T05:02:25.654Z,58.24
2022-11-05T05:04:27.351Z,58.39
2022-11-05T05:06:28.907Z,58.29
2022-11-05T05:08:30.400Z,58.28
2022-11-05T05:10:32.666Z,58.16
2022-11-05T05:12:36.279Z,58.39
2022-11-05T05:14:37.816Z,58.22
2022-11-05T05:16:39.350Z,58.25
2022-11-05T05:18:45.911Z,58.21
2022-11-05T05:21:06.234Z,58.36
2022-11-05T05:23:07.891Z,58.36
2022-11-05T05:25:09.717Z,58.30
2022-11-05T05:27:11.276Z,58.36
2022-11-05T05:29:13.581Z,58.30
2022-11-05T05:31:15.317Z,58.27
2022-11-05T05:33:16.823Z,58.17
2022-11-05T05:35:18.406Z,58.15
2022-11-05T05:37:19.990Z,58.34
2022-11-05T05:39:21.514Z,58.36
2022-11-05T05:41:23.297Z,58.23
2022-11-05T05:43:25.979Z,58.43
2022-11-05T05:45:27.487Z,58.29
2022-11-05T05:47:29.068Z,58.45
2022-11-05T05:49:30.565Z,58.34
2022-11-05T05:51:32.133Z,58.29
2022-11-05T05:53:34.433Z,58.34
2022-11-05T05:55:35.928Z,58.23
2022-11-05T05:57:37.496Z,58.36
2022-11-05T05:59:38.987Z,58.67
2022-11-05T06:01:40.696Z,58.53
2022-11-05T06:03:42.329Z,58.41
2022-11-05T06:05:43.948Z,58.08
2022-11-05T06:07:45.417Z,58.40
2022-11-05T06:09:46.994Z,58.41
2022-11-05T06:11:48.526Z,58.38
2022-11-05T06:13:50.162Z,58.48
2022-11-05T06:15:51.856Z,58.45
2022-11-05T06:17:53.288Z,58.48
2022-11-05T06:19:54.783Z,58.27
2022-11-05T06:21:56.339Z,58.39
2022-11-05T06:24:00.491Z,58.44
2022-11-05T06:26:03.535Z,58.42
2022-11-05T06:28:04.932Z,58.47
2022-11-05T06:30:07.081Z,58.44
2022-11-05T06:32:08.654Z,58.35
2022-11-05T06:34:10.283Z,58.33
2022-11-05T06:36:16.501Z,58.40
2022-11-05T06:38:18.100Z,58.32
2022-11-05T06:40:20.394Z,58.39
2022-11-05T06:42:21.928Z,58.37
2022-11-05T06:44:23.464Z,58.37
2022-11-05T06:46:25.041Z,58.70
2022-11-05T06:48:26.551Z,58.53
2022-11-05T06:50:28.786Z,58.36
2022-11-05T06:52:31.258Z,58.35
2022-11-05T06:54:33.184Z,58.52
2022-11-05T06:56:34.912Z,58.45
2022-11-05T06:58:36.894Z,58.33
2022-11-05T07:00:38.554Z,58.59
2022-11-05T07:02:40.348Z,58.39
2022-11-05T07:04:42.201Z,58.44
2022-11-05T07:06:43.771Z,58.42
2022-11-05T07:08:45.334Z,58.67
2022-11-05T07:10:47.171Z,58.51
2022-11-05T07:12:48.736Z,58.49
2022-11-05T07:14:50.352Z,58.47
2022-11-05T07:16:52.010Z,58.56
2022-11-05T07:18:55.786Z,58.42
2022-11-05T07:20:59.382Z,58.58
2022-11-05T07:23:12.471Z,58.72
2022-11-05T07:25:14.212Z,58.84
2022-11-05T07:27:16.475Z,58.60
2022-11-05T07:29:18.062Z,58.79
2022-11-05T07:31:19.588Z,58.84
2022-11-05T07:33:21.074Z,58.93
2022-11-05T07:35:22.706Z,59.06
2022-11-05T07:37:24.273Z,59.20
2022-11-05T07:39:25.923Z,59.10
2022-11-05T07:41:27.963Z,59.02
2022-11-05T07:43:29.483Z,59.12
2022-11-05T07:45:31.950Z,59.20
2022-11-05T07:47:33.425Z,59.13
2022-11-05T07:49:34.922Z,59.18
2022-11-05T07:51:36.495Z,59.09
2022-11-05T07:53:41.098Z,59.35
2022-11-05T07:55:46.659Z,59.23
2022-11-05T07:57:50.311Z,59.21
2022-11-05T07:59:51.837Z,59.29
2022-11-05T08:01:53.537Z,59.09
2022-11-05T08:03:55.279Z,59.31
2022-11-05T08:05:56.931Z,59.47
2022-11-05T08:07:58.464Z,59.29
2022-11-05T08:10:00.055Z,59.40
2022-11-05T08:12:03.196Z,59.35
2022-11-05T08:14:05.004Z,59.53
2022-11-05T08:16:07.693Z,59.55
2022-11-05T08:18:14.766Z,59.44
2022-11-05T08:20:16.741Z,59.59
2022-11-05T08:22:18.442Z,59.53
2022-11-05T08:24:19.914Z,59.48
2022-11-05T08:26:21.564Z,59.66
2022-11-05T08:28:24.373Z,59.59
2022-11-05T08:30:26.512Z,59.69
2022-11-05T08:32:27.991Z,59.83
2022-11-05T08:34:29.508Z,59.84
2022-11-05T08:36:31.085Z,59.81
2022-11-05T08:38:32.598Z,59.76
2022-11-05T08:40:36.323Z,60.06
2022-11-05T08:42:37.781Z,59.79
2022-11-05T08:44:39.260Z,59.67
2022-11-05T08:46:41.845Z,59.77
2022-11-05T08:48:43.459Z,59.79
2022-11-05T08:50:46.512Z,59.84
2022-11-05T08:52:47.989Z,59.72
2022-11-05T08:54:49.508Z,59.66
2022-11-05T08:56:51.144Z,59.39
2022-11-05T08:58:52.673Z,59.58
2022-11-05T09:00:54.606Z,59.69
2022-11-05T09:03:01.934Z,59.63
2022-11-05T09:05:03.692Z,59.62
2022-11-05T09:07:05.254Z,59.57
2022-11-05T09:09:06.659Z,59.61
2022-11-05T09:11:08.340Z,59.49
2022-11-05T09:13:16.594Z,59.57
2022-11-05T09:15:19.759Z,59.42
2022-11-05T09:17:21.753Z,59.66
2022-11-05T09:19:23.473Z,59.56
2022-11-05T09:21:24.948Z,59.60
2022-11-05T09:23:26.548Z,59.55
2022-11-05T09:25:28.193Z,59.70
2022-11-05T09:27:29.775Z,59.65
2022-11-05T09:29:31.357Z,59.89
2022-11-05T09:31:32.918Z,59.54
2022-11-05T09:33:36.541Z,59.53
2022-11-05T09:35:39.941Z,59.74
2022-11-05T09:37:41.564Z,59.62
2022-11-05T09:39:43.202Z,59.65
2022-11-05T09:41:45.941Z,59.71
2022-11-05T09:43:56.409Z,59.79
2022-11-05T09:46:02.833Z,59.60
2022-11-05T09:48:11.296Z,59.72
2022-11-05T09:50:30.413Z,59.73
2022-11-05T09:52:33.727Z,59.85
2022-11-05T09:54:35.362Z,59.18
2022-11-05T09:56:41.374Z,59.70
2022-11-05T09:58:54.515Z,59.76
2022-11-05T10:00:57.806Z,59.81
2022-11-05T10:03:05.195Z,59.85
2022-11-05T10:05:11.229Z,59.78
2022-11-05T10:07:18.596Z,59.84
2022-11-05T10:09:47.642Z,60.07
2022-11-05T10:11:58.086Z,59.88
2022-11-05T10:14:07.492Z,60.03
2022-11-05T10:16:21.068Z,59.97
2022-11-05T10:18:36.261Z,60.09
2022-11-05T10:20:39.105Z,59.70
2022-11-05T10:22:43.972Z,59.80
2022-11-05T10:24:51.146Z,59.89
2022-11-05T10:26:55.350Z,59.88
2022-11-05T10:28:57.091Z,59.74
2022-11-05T10:31:02.447Z,60.10
2022-11-05T10:33:06.803Z,60.02
2022-11-05T10:35:18.360Z,59.90
2022-11-05T10:37:23.355Z,59.92
2022-11-05T10:39:27.625Z,60.11
2022-11-05T10:41:34.689Z,60.01
2022-11-05T10:43:49.041Z,60.18
2022-11-05T10:45:54.322Z,59.94
2022-11-05T10:48:01.816Z,59.89
2022-11-05T10:50:21.379Z,60.05
2022-11-05T10:52:26.449Z,59.75
2022-11-05T10:54:33.692Z,59.94
2022-11-05T10:56:38.549Z,59.84
2022-11-05T10:58:57.681Z,59.68
2022-11-05T11:00:59.213Z,59.86
2022-11-05T11:03:03.948Z,59.90
2022-11-05T11:05:05.703Z,59.71
2022-11-05T11:07:21.765Z,59.62
2022-11-05T11:09:36.044Z,59.31
2022-11-05T11:11:42.836Z,59.43
2022-11-05T11:14:12.082Z,59.32
2022-11-05T11:16:17.034Z,59.38
2022-11-05T11:18:33.387Z,59.17
2022-11-05T11:20:44.932Z,59.29
2022-11-05T11:23:01.540Z,59.25
2022-11-05T11:25:22.948Z,59.34
2022-11-05T11:27:29.090Z,59.02
2022-11-05T11:29:35.947Z,59.02
2022-11-05T11:31:39.596Z,58.96
2022-11-05T11:33:44.500Z,58.67
2022-11-05T11:35:46.577Z,58.61
2022-11-05T11:37:51.481Z,58.62
2022-11-05T11:39:57.699Z,58.36
2022-11-05T11:42:05.987Z,58.62
2022-11-05T11:44:15.474Z,58.36
2022-11-05T11:46:19.997Z,58.36
2022-11-05T11:48:30.248Z,58.18
2022-11-05T11:50:46.760Z,58.32
2022-11-05T11:52:48.267Z,58.03
2022-11-05T11:54:50.726Z,57.86
2022-11-05T11:56:52.379Z,57.84
2022-11-05T11:58:55.922Z,57.67
2022-11-05T12:01:16.594Z,57.65
2022-11-05T12:03:31.380Z,57.38
2022-11-05T12:05:41.513Z,57.43
2022-11-05T12:07:53.873Z,57.41
2022-11-05T12:10:16.603Z,57.13
2022-11-05T12:12:26.107Z,57.35
2022-11-05T12:15:07.045Z,57.23
2022-11-05T12:17:38.185Z,57.09
2022-11-05T12:19:49.001Z,57.20
2022-11-05T12:21:59.066Z,57.17
2022-11-05T12:24:15.858Z,57.39
2022-11-05T12:26:23.434Z,57.24
2022-11-05T12:29:11.999Z,57.27
2022-11-05T12:31:26.295Z,57.07
2022-11-05T12:33:42.473Z,57.19
2022-11-05T12:36:02.916Z,57.21
2022-11-05T12:38:27.616Z,57.13
2022-11-05T12:40:50.880Z,57.09
2022-11-05T12:43:36.889Z,57.19
2022-11-05T12:45:51.632Z,57.23
2022-11-05T12:48:07.309Z,57.19
2022-11-05T12:50:22.236Z,57.17
2022-11-05T12:52:54.696Z,57.25
2022-11-05T12:55:15.138Z,57.21
2022-11-05T12:57:17.864Z,57.17
2022-11-05T12:59:25.337Z,57.18
2022-11-05T13:01:34.995Z,57.28
2022-11-05T13:03:47.795Z,57.26
2022-11-05T13:06:05.896Z,57.22
2022-11-05T13:08:18.817Z,57.22
2022-11-05T13:10:42.767Z,57.25
2022-11-05T13:12:48.410Z,57.48
2022-11-05T13:15:31.892Z,57.34
2022-11-05T13:17:58.322Z,57.48
2022-11-05T13:20:21.987Z,57.39
2022-11-05T13:22:50.799Z,57.56
2022-11-05T13:25:00.915Z,57.53
2022-11-05T13:27:21.691Z,57.55
2022-11-05T13:29:32.042Z,57.57
2022-11-05T13:31:38.644Z,57.60
2022-11-05T13:33:44.153Z,57.59
2022-11-05T13:36:14.687Z,57.63
2022-11-05T13:38:45.386Z,57.51
2022-11-05T13:40:58.645Z,57.50
2022-11-05T13:43:03.508Z,57.60
2022-11-05T13:45:17.068Z,57.61
2022-11-05T13:47:37.487Z,57.44
2022-11-05T13:49:46.382Z,57.37
2022-11-05T13:52:09.536Z,57.50
2022-11-05T13:55:09.393Z,57.43
2022-11-05T13:57:46.314Z,57.47
2022-11-05T14:00:03.303Z,57.56
2022-11-05T14:02:20.896Z,57.48
2022-11-05T14:04:30.894Z,57.54
2022-11-05T14:06:36.124Z,57.69
2022-11-05T14:08:45.101Z,57.60
2022-11-05T14:11:07.154Z,57.46
2022-11-05T14:13:26.697Z,57.49
2022-11-05T14:15:30.930Z,57.46
2022-11-05T14:17:53.141Z,57.51
2022-11-05T14:20:04.511Z,57.29
2022-11-05T14:22:29.625Z,57.41
2022-11-05T14:24:37.361Z,57.45
2022-11-05T14:26:38.875Z,57.39
2022-11-05T14:28:44.344Z,57.51
2022-11-05T14:30:47.254Z,57.40
2022-11-05T14:32:50.906Z,57.29
2022-11-05T14:35:37.854Z,57.31
2022-11-05T14:37:59.286Z,57.38
2022-11-05T14:40:39.221Z,57.24
2022-11-05T14:42:49.847Z,57.34
2022-11-05T14:45:03.222Z,57.34
2022-11-05T14:47:19.834Z,57.35
2022-11-05T14:49:26.657Z,57.08
2022-11-05T14:51:43.987Z,57.11
2022-11-05T14:53:45.593Z,57.24
2022-11-05T14:55:47.298Z,57.29
2022-11-05T14:57:54.685Z,57.03
2022-11-05T14:59:58.352Z,57.15
2022-11-05T15:02:18.050Z,57.04
2022-11-05T15:04:30.240Z,56.93
2022-11-05T15:06:36.595Z,56.98
2022-11-05T15:09:07.161Z,57.26
2022-11-05T15:11:15.112Z,57.09
2022-11-05T15:13:31.190Z,57.27
2022-11-05T15:15:42.486Z,57.17
2022-11-05T15:18:26.639Z,57.13
2022-11-05T15:20:47.974Z,57.39
2022-11-05T15:22:56.778Z,57.04
2022-11-05T15:24:59.176Z,57.25
2022-11-05T15:27:12.459Z,57.07
2022-11-05T15:29:19.659Z,57.01
2022-11-05T15:31:21.180Z,57.44
2022-11-05T15:33:23.277Z,57.19
2022-11-05T15:35:27.936Z,57.05
2022-11-05T15:37:29.509Z,57.00
2022-11-05T15:39:43.616Z,57.09
2022-11-05T15:41:45.515Z,57.17
2022-11-05T15:43:49.115Z,57.05
2022-11-05T15:46:08.396Z,57.08
2022-11-05T15:48:15.870Z,56.97
2022-11-05T15:50:17.806Z,57.05
2022-11-05T15:52:22.514Z,56.97
2022-11-05T15:54:30.145Z,57.12
2022-11-05T15:56:48.014Z,57.19
2022-11-05T15:58:52.958Z,57.05
2022-11-05T16:00:54.632Z,57.16
2022-11-05T16:03:16.979Z,57.21
2022-11-05T16:05:18.652Z,56.94
2022-11-05T16:07:21.158Z,57.06
2022-11-05T16:09:27.160Z,57.00
2022-11-05T16:11:28.864Z,57.01
2022-11-05T16:13:34.887Z,56.95
2022-11-05T16:15:36.714Z,57.03
2022-11-05T16:17:54.750Z,57.04
2022-11-05T16:19:56.891Z,57.14
2022-11-05T16:22:02.688Z,57.03
2022-11-05T16:24:04.656Z,57.06
2022-11-05T16:27:01.956Z,57.19
2022-11-05T16:29:20.677Z,57.28
2022-11-05T16:31:24.738Z,57.10
2022-11-05T16:33:32.880Z,57.25
2022-11-05T16:35:40.080Z,57.24
2022-11-05T16:37:46.437Z,57.31
2022-11-05T16:39:51.699Z,57.28
2022-11-05T16:41:53.399Z,57.35
2022-11-05T16:43:57.220Z,57.52
2022-11-05T16:46:00.104Z,57.40
2022-11-05T16:48:01.630Z,57.49
2022-11-05T16:50:13.315Z,57.43
2022-11-05T16:52:15.196Z,57.19
2022-11-05T16:54:16.763Z,57.57
2022-11-05T16:56:21.451Z,57.39
2022-11-05T16:58:25.141Z,57.29
2022-11-05T17:00:26.763Z,57.37
2022-11-05T17:02:28.850Z,57.29
2022-11-05T17:04:30.509Z,57.25
2022-11-05T17:06:32.154Z,57.75
2022-11-05T17:08:34.847Z,57.26
2022-11-05T17:10:36.481Z,57.30
2022-11-05T17:12:38.113Z,57.29
2022-11-05T17:14:39.768Z,57.34
2022-11-05T17:16:41.714Z,57.53
2022-11-05T17:18:44.119Z,57.35
2022-11-05T17:20:51.235Z,57.44
2022-11-05T17:22:53.052Z,57.34
2022-11-05T17:24:54.466Z,57.42
2022-11-05T17:26:56.051Z,57.55
2022-11-05T17:28:57.579Z,57.36
2022-11-05T17:31:00.386Z,57.23
2022-11-05T17:33:02.041Z,57.38
2022-11-05T17:35:04.048Z,57.40
2022-11-05T17:37:05.498Z,57.42
2022-11-05T17:39:07.370Z,57.52
2022-11-05T17:41:14.212Z,57.44
2022-11-05T17:43:16.131Z,57.30
2022-11-05T17:45:18.504Z,57.39
2022-11-05T17:47:20.058Z,57.88
2022-11-05T17:49:21.591Z,57.48
2022-11-05T17:51:23.219Z,57.22
2022-11-05T17:53:24.807Z,57.28
2022-11-05T17:55:26.571Z,57.59
2022-11-05T17:57:28.515Z,57.43
2022-11-05T17:59:30.739Z,57.51
2022-11-05T18:01:35.571Z,57.52
2022-11-05T18:03:37.245Z,57.52
2022-11-05T18:05:40.155Z,57.59
2022-11-05T18:07:41.980Z,57.49
2022-11-05T18:09:43.839Z,57.50
2022-11-05T18:11:45.726Z,57.67
2022-11-05T18:13:47.220Z,57.57
2022-11-05T18:15:52.391Z,57.55
2022-11-05T18:17:53.918Z,57.61
2022-11-05T18:19:55.538Z,57.56
2022-11-05T18:21:57.014Z,57.43
2022-11-05T18:23:58.609Z,57.68
2022-11-05T18:26:00.206Z,57.47
2022-11-05T18:28:03.112Z,57.51
2022-11-05T18:30:05.234Z,57.71
2022-11-05T18:32:06.966Z,57.73
2022-11-05T18:34:10.331Z,57.63
2022-11-05T18:36:19.413Z,57.65
2022-11-05T18:38:21.048Z,57.69
2022-11-05T18:40:22.665Z,57.79
2022-11-05T18:42:25.225Z,57.48
2022-11-05T18:44:26.903Z,57.54
2022-11-05T18:46:56.437Z,57.75
2022-11-05T18:48:51.666Z,57.74
2022-11-05T18:50:56.494Z,57.70
2022-11-05T18:53:00.510Z,57.73
2022-11-05T18:55:02.087Z,57.62
2022-11-05T18:57:03.701Z,57.43
2022-11-05T18:59:34.571Z,57.67
2022-11-05T19:01:28.521Z,57.59
2022-11-05T19:03:30.057Z,57.44
2022-11-05T19:05:31.659Z,57.67
2022-11-05T19:07:36.914Z,57.45
2022-11-05T19:09:40.210Z,57.37
2022-11-05T19:11:41.821Z,57.41
2022-11-05T19:13:44.022Z,57.32
2022-11-05T19:15:45.768Z,57.38
2022-11-05T19:17:47.235Z,57.40
2022-11-05T19:19:48.725Z,57.45
2022-11-05T19:21:51.378Z,57.63
2022-11-05T19:23:53.619Z,57.21
2022-11-05T19:25:55.259Z,57.51
2022-11-05T19:27:58.513Z,57.44
2022-11-05T19:29:59.977Z,57.53
2022-11-05T19:32:01.543Z,57.59
2022-11-05T19:34:03.307Z,57.46
2022-11-05T19:36:06.510Z,57.46
2022-11-05T19:38:08.027Z,57.50
2022-11-05T19:40:10.708Z,57.46
2022-11-05T19:42:12.611Z,57.54
2022-11-05T19:44:14.113Z,57.40
2022-11-05T19:46:18.584Z,57.40
2022-11-05T19:48:21.054Z,57.44
2022-11-05T19:50:22.831Z,57.43
2022-11-05T19:52:24.309Z,57.45
2022-11-05T19:54:25.993Z,57.46
2022-11-05T19:56:30.448Z,57.39
2022-11-05T19:58:32.023Z,57.44
2022-11-05T20:00:35.023Z,57.42
2022-11-05T20:02:36.624Z,57.52
2022-11-05T20:04:38.218Z,57.36
2022-11-05T20:06:40.876Z,57.26
2022-11-05T20:09:07.143Z,57.22
2022-11-05T20:11:06.435Z,57.21
2022-11-05T20:13:07.938Z,57.40
2022-11-05T20:15:09.819Z,57.25
2022-11-05T20:17:11.457Z,57.28
2022-11-05T20:19:15.498Z,57.20
2022-11-05T20:21:17.806Z,57.11
2022-11-05T20:23:19.496Z,57.28
2022-11-05T20:25:21.171Z,57.17
2022-11-05T20:27:22.952Z,57.16
2022-11-05T20:29:29.016Z,57.17
2022-11-05T20:31:31.158Z,57.25
2022-11-05T20:33:32.656Z,57.28
2022-11-05T20:35:34.173Z,57.21
2022-11-05T20:37:35.660Z,57.23
2022-11-05T20:39:37.114Z,57.21
2022-11-05T20:41:38.797Z,57.23
2022-11-05T20:43:41.128Z,57.22
2022-11-05T20:45:42.674Z,57.32
2022-11-05T20:47:44.387Z,57.19
2022-11-05T20:49:45.857Z,57.21
2022-11-05T20:51:47.444Z,57.10
2022-11-05T20:53:49.416Z,57.20
2022-11-05T20:55:50.966Z,57.13
2022-11-05T20:57:52.540Z,57.03
2022-11-05T20:59:54.356Z,57.09
2022-11-05T21:01:56.040Z,57.22
2022-11-05T21:03:57.917Z,57.08
2022-11-05T21:06:04.149Z,57.20
2022-11-05T21:08:05.907Z,57.04
2022-11-05T21:10:07.594Z,57.10
2022-11-05T21:12:12.086Z,57.11
2022-11-05T21:14:13.708Z,56.46
2022-11-05T21:16:18.524Z,57.02
2022-11-05T21:18:22.023Z,57.06
2022-11-05T21:20:23.587Z,57.07
2022-11-05T21:22:25.516Z,57.01
2022-11-05T21:24:27.383Z,57.01
2022-11-05T21:26:30.949Z,57.11
2022-11-05T21:28:33.363Z,57.16
2022-11-05T21:30:37.595Z,57.00
2022-11-05T21:32:39.221Z,57.12
2022-11-05T21:34:40.723Z,57.13
2022-11-05T21:36:42.315Z,57.16
2022-11-05T21:38:43.859Z,56.98
2022-11-05T21:40:46.137Z,57.10
2022-11-05T21:42:47.670Z,56.92
2022-11-05T21:44:49.242Z,57.06
2022-11-05T21:46:52.503Z,57.09
2022-11-05T21:48:53.902Z,56.63
2022-11-05T21:51:14.104Z,56.96
2022-11-05T21:53:35.795Z,57.05
2022-11-05T21:55:59.179Z,57.08
2022-11-05T21:58:24.814Z,56.84
2022-11-05T22:00:26.390Z,56.78
2022-11-05T22:02:30.968Z,56.81
2022-11-05T22:04:46.877Z,56.69
2022-11-05T22:06:48.434Z,56.66
2022-11-05T22:08:49.936Z,56.83
2022-11-05T22:10:51.563Z,56.58
2022-11-05T22:12:53.071Z,56.76
2022-11-05T22:14:55.076Z,56.58
2022-11-05T22:16:57.443Z,56.61
2022-11-05T22:18:59.495Z,56.73
2022-11-05T22:21:01.122Z,56.70
2022-11-05T22:23:05.371Z,56.78
2022-11-05T22:25:10.259Z,56.73
2022-11-05T22:27:17.302Z,56.56
2022-11-05T22:29:19.132Z,56.52
2022-11-05T22:31:21.001Z,56.65
2022-11-05T22:33:22.702Z,56.81
2022-11-05T22:35:24.293Z,56.57
2022-11-05T22:37:25.801Z,57.13
2022-11-05T22:39:27.381Z,56.83
2022-11-05T22:41:29.039Z,57.04
2022-11-05T22:43:32.319Z,56.90
2022-11-05T22:45:36.844Z,56.79
2022-11-05T22:47:41.468Z,56.70
2022-11-05T22:49:43.104Z,56.82
2022-11-05T22:51:45.506Z,56.69
2022-11-05T22:53:47.250Z,56.73
2022-11-05T22:55:48.846Z,56.79
2022-11-05T22:57:50.304Z,56.61
2022-11-05T22:59:52.099Z,56.52
2022-11-05T23:01:53.799Z,56.76
2022-11-05T23:03:56.966Z,56.64
2022-11-05T23:06:04.274Z,56.65
2022-11-05T23:08:38.042Z,56.61
2022-11-05T23:10:58.588Z,56.53
2022-11-05T23:13:00.094Z,56.84
2022-11-05T23:15:05.536Z,56.74
2022-11-05T23:17:27.417Z,56.67
2022-11-05T23:19:48.322Z,56.94
2022-11-05T23:22:08.543Z,56.72
2022-11-05T23:24:13.005Z,56.75
2022-11-05T23:26:32.974Z,56.58
2022-11-05T23:28:34.461Z,56.95
2022-11-05T23:30:58.202Z,56.97
2022-11-05T23:32:59.689Z,56.94
2022-11-05T23:35:01.337Z,56.81
2022-11-05T23:37:21.697Z,56.78
2022-11-05T23:39:23.161Z,56.79
2022-11-05T23:41:43.331Z,56.80
2022-11-05T23:44:03.527Z,56.78
2022-11-05T23:46:23.809Z,56.96
2022-11-05T23:48:35.483Z,56.96
2022-11-05T23:50:40.048Z,57.04
2022-11-05T23:52:41.792Z,57.08
2022-11-05T23:54:43.314Z,57.06
2022-11-05T23:56:45.869Z,56.71
2022-11-05T23:58:47.363Z,56.96
